Startpagina
METAR-TAF:

METAR-TAF

Vliegvelden :

Tiruchirapalli, India

breedte: 10-46N, lengte: 078-43E, hoogte: 85 m

Actueel weer

Dit bericht is 47 minuten geleden gemaakt, om 10:30 UTC
Wind 12 kt uit het westen met uitschieters tot 22 kt
Temperatuur 33°C
Vochtigheid 46%
Druk 1003 hPa
Zicht: 8000 m
Verspreide wolken op 1800 ft
Gebroken wolken op 10000 ft

METAR: VOTR 191030Z 27012G22KT 8000 SCT018 BKN100 33/20 Q1003 NOSIG

Tijdstip: 16:47 (11:17 UTC)

Verwachting

Dit bericht is 6 uur en het 17 minuten geleden gemaakt, om 05:00 UTC
Verwachting geldig van 19 om 06 UTC tot 20 om 12 UTC
Wind 10 kt uit het westen met uitschieters tot 25 kt
Zicht: 6000 m
Weinig wolken op 1800 ft
Gebroken wolken op 10000 ft
Wijzigt naar
van 19 om 15 UTC tot 19 om 16 UTC
Wind 10 kt uit het westen
Wijzigt naar
van 20 om 03 UTC tot 20 om 04 UTC
Wind 10 kt uit het westen met uitschieters tot 25 kt

TAF: VOTR 190500Z 1906/2012 27010G25KT 6000 FEW018 BKN100 BECMG 1915/1916 27010KT BECMG 2003/2004 27010G25KT

Waarnemingen en weersverwachtingen van meer dan 4000 vliegvelden (METAR en TAF).

De beschikbare stations zijn de gele en rode punten op de kaart.

Ga met uw muis naar het station om de naam te zien.

Klik dan om waarnemingen en weersverwachtingen te zien.

kaart wijzigen: klik op de groene knoppen met een zwart kruis om in te zoomen, op de groene knop met een streepje om uit te zoomen of op de groene pijlen voor aangrenzende kaarten.


METAR-TAF: